• Join FlightAware (Why Join?)
  • Login
  • US Flag 
09:07PM EDT


 

Airport Tracker/Info


-or-


 

Live Flight TrackerFlight Track Log ✈ FDX1166 ✈ 17-Jul-2013 ✈ KAFW - KONT

Flight Track Log - Related Links

Times and Time Zones

All times are in EDT time to prevent confusion due to time zone crossing. See the FDX1166 flight status page for this flight to view local times or setup timezone preferences in your user account.

Time Position Orientation Groundspeed Altitude Reporting Facility
EDT Latitude Longitude Course Direction KTS MPH feet Rate Location/Type
04:34AM 32.9590 -97.3160 185° South 182 209 2,100  Level FlightAware
04:34AM 32.9290 -97.3190 185° South 230 265 3,100 2,220 Climbing FlightAware
04:34AM 32.9160 -97.3200 184° South 241 277 3,600 2,880 Climbing FlightAware
04:35AM 32.9000 -97.3260 197° South 257 296 4,300 3,000 Climbing FlightAware
04:35AM 32.8860 -97.3410 222° Southwest 275 316 5,100 3,180 Climbing FlightAware
04:35AM 32.8780 -97.3630 247° West 288 331 5,900 3,180 Climbing FlightAware
04:35AM 32.8750 -97.3860 261° West 297 342 6,700 3,360 Climbing FlightAware
04:36AM 32.8750 -97.4420 270° West 300 345 8,700 3,480 Climbing FlightAware
04:36AM 32.8740 -97.4780 268° West 303 349 9,900 1,980 Climbing FlightAware
04:37AM 32.8720 -97.5500 268° West 363 418 10,700 2,100 Climbing FlightAware
04:38AM 32.8690 -97.6340 268° West 391 450 12,700 2,880 Climbing FlightAware
04:38AM 32.8660 -97.7250 268° West 408 470 14,800 2,940 Climbing FlightAware
04:39AM 32.8760 -97.8570 275° West 428 493 17,600 2,940 Climbing FlightAware
04:40AM 32.8910 -97.9630 280° West 436 502 19,700 2,640 Climbing FlightAware
04:41AM 32.9040 -98.0620 279° West 448 516 21,400 1,740 Climbing FlightAware
04:42AM 32.9210 -98.1850 279° West 453 521 22,500 2,340 Climbing FlightAware
04:42AM 32.9380 -98.3050 280° West 465 535 25,300 2,100 Climbing FlightAware
04:43AM 32.9490 -98.3850 279° West 465 535 25,300  Level FlightAware
04:44AM 32.9630 -98.4880 279° West 465 535 25,300  Level FlightAware
04:44AM 32.9730 -98.5660 279° West 465 535 25,300 4,140 Level FlightAware
04:45AM 33.0000 -98.7490 280° West 480 552 31,100 5,100 Climbing FlightAware
04:46AM 33.0140 -98.8500 279° West 472 543 32,800 2,400 Climbing FlightAware
04:47AM 33.0290 -98.9620 279° West 464 534 34,500 2,280 Climbing FlightAware
04:47AM 33.0430 -99.0690 279° West 457 526 36,200 2,280 Climbing FlightAware
04:48AM 33.0570 -99.1730 279° West 449 517 37,700 1,920 Climbing FlightAware
04:49AM 33.0690 -99.2630 279° West 447 514 38,700 1,380 Climbing FlightAware
04:49AM 33.0840 -99.3770 279° West 445 512 39,700 960 Climbing FlightAware
04:50AM 33.0960 -99.4740 278° West 446 513 40,100 300 Climbing FlightAware
04:51AM 33.1090 -99.5710 279° West 447 514 40,100  Level FlightAware
04:51AM 33.1210 -99.6660 279° West 447 514 40,100  Level FlightAware
04:52AM 33.1340 -99.7690 279° West 447 514 40,100  Level FlightAware
04:53AM 33.1470 -99.8680 279° West 445 512 40,100  Level FlightAware
04:53AM 33.1570 -99.9510 278° West 444 511 40,100  Level FlightAware
04:54AM 33.1720 -100.0700 279° West 444 511 40,100  Level FlightAware
04:55AM 33.1830 -100.1690 278° West 444 511 40,100  Level FlightAware
04:56AM 33.1920 -100.2460 278° West 444 511 40,100  Level FlightAware
04:57AM 33.2100 -100.3940 278° West 444 511 40,100  Level FlightAware
04:57AM 33.2190 -100.4710 278° West 444 511 40,100  Level FlightAware
04:58AM 33.2280 -100.5450 278° West 444 511 40,100  Level FlightAware
04:59AM 33.2390 -100.6440 278° West 444 511 40,100  Level FlightAware
05:00AM 33.2590 -100.8140 278° West 444 511 40,100  Level FlightAware
05:02AM 33.2800 -100.9960 278° West 444 511 40,100  Level FlightAware
05:02AM 33.2890 -101.0680 279° West 444 511 40,100  Level FlightAware
05:03AM 33.3010 -101.1680 278° West 444 511 40,100  Level FlightAware
05:04AM 33.3100 -101.2440 278° West 444 511 40,100  Level FlightAware
05:05AM 33.0790 -101.6160 234° Southwest 473 544 40,100  Level FlightAware
05:05AM 33.0900 -101.7160 278° West 470 541 40,100  Level FlightAware
05:06AM 33.0990 -101.7950 278° West 470 541 40,100  Level FlightAware
05:07AM 33.1180 -101.9210 280° West 457 526 40,100  Level FlightAware
05:07AM 33.1300 -102.0100 279° West 454 522 40,100  Level FlightAware
05:08AM 33.1450 -102.1310 278° West 452 520 40,100  Level FlightAware
05:09AM 33.1550 -102.2120 278° West 451 519 40,100  Level FlightAware
05:10AM 33.1700 -102.3420 278° West 451 519 40,100  Level FlightAware
05:10AM 33.1790 -102.4200 278° West 451 519 40,100  Level FlightAware
05:11AM 33.1910 -102.5200 278° West 451 519 40,100  Level FlightAware
05:12AM 33.2030 -102.6210 278° West 451 519 40,100  Level FlightAware
05:13AM 33.2120 -102.6970 278° West 451 519 40,100  Level FlightAware
05:13AM 33.2240 -102.7980 278° West 451 519 40,100  Level FlightAware
05:14AM 33.2330 -102.8730 278° West 451 519 40,100  Level FlightAware
05:15AM 33.2490 -103.0160 278° West 451 519 40,100  Level FlightAware
05:16AM 33.2690 -103.1800 278° West 451 519 40,100  Level FlightAware
05:17AM 33.2800 -103.2790 278° West 451 519 40,100  Level FlightAware
05:18AM 33.2890 -103.3500 279° West 451 519 40,100  Level FlightAware
05:19AM 33.5789 -103.6272 279° West 481 554 40,100  Level Albuquerque Center
05:20AM 33.6378 -103.7692 297° West 480 552 40,100  Level Albuquerque Center
05:21AM 33.7069 -103.9403 296° West 477 549 40,100  Level Albuquerque Center
05:22AM 33.7622 -104.0842 295° West 476 548 40,100  Level Albuquerque Center
05:23AM 33.8178 -104.2275 295° West 475 547 40,100  Level Albuquerque Center
05:24AM 33.8736 -104.3764 294° West 474 545 40,100  Level Albuquerque Center
05:25AM 33.9356 -104.5153 298° West 470 541 40,100  Level Albuquerque Center
05:26AM 34.0025 -104.6514 301° West 470 541 40,100  Level Albuquerque Center
05:27AM 34.0553 -104.7706 298° West 472 543 40,100  Level Albuquerque Center
05:28AM 34.1056 -104.9178 292° West 471 542 40,100  Level Albuquerque Center
05:29AM 34.1567 -105.0653 293° West 471 542 40,100  Level Albuquerque Center
05:30AM 34.2075 -105.2117 293° West 470 541 40,100  Level Albuquerque Center
05:31AM 34.2589 -105.3569 293° West 467 537 40,100  Level Albuquerque Center
05:32AM 34.3092 -105.5042 292° West 467 537 40,100  Level Albuquerque Center
05:37AM 34.3750 -106.2880 292° West 481 554 40,100  Level FlightAware
05:37AM 34.3760 -106.4010 271° West 480 552 40,100  Level FlightAware
05:38AM 34.3770 -106.5460 271° West 480 552 40,100  Level FlightAware
05:39AM 34.3790 -106.6830 271° West 483 556 40,100  Level FlightAware
05:40AM 34.3800 -106.7890 271° West 482 555 40,100  Level FlightAware
05:41AM 34.3810 -106.9360 271° West 480 552 40,100  Level FlightAware
05:41AM 34.3810 -107.0460 270° West 480 552 40,100  Level FlightAware
05:42AM 34.3820 -107.1770 271° West 479 551 40,100  Level FlightAware
05:43AM 34.3820 -107.2940 270° West 479 551 40,100  Level FlightAware
05:44AM 34.3820 -107.3760 270° West 479 551 40,100  Level FlightAware
05:44AM 34.3820 -107.4860 270° West 479 551 40,100  Level FlightAware
05:46AM 34.3820 -107.7180 270° West 479 551 40,100  Level FlightAware
05:47AM 34.3820 -107.8070 270° West 479 551 40,100  Level FlightAware
05:47AM 34.3820 -107.8920 270° West 479 551 40,100  Level FlightAware
05:48AM 34.3820 -108.0010 270° West 479 551 40,100  Level FlightAware
05:49AM 34.3820 -108.0840 270° West 479 551 40,100  Level FlightAware
05:49AM 34.3820 -108.1660 270° West 479 551 40,100  Level FlightAware
05:51AM 34.3820 -108.3320 270° West 479 551 40,100  Level FlightAware
05:51AM 34.3820 -108.4150 270° West 479 551 40,100  Level FlightAware
05:52AM 34.3820 -108.5240 270° West 479 551 40,100  Level FlightAware
05:53AM 34.3770 -108.8020 269° West 451 519 40,100  Level FlightAware
05:54AM 34.3760 -108.9410 270° West 450 518 40,100  Level FlightAware
05:54AM 34.3750 -109.0320 269° West 450 518 40,100  Level FlightAware
05:55AM 34.3740 -109.1350 269° West 451 519 40,100  Level FlightAware
05:56AM 34.3720 -109.2480 269° West 451 519 40,100  Level FlightAware
05:56AM 34.3710 -109.3390 269° West 451 519 40,100  Level FlightAware
05:57AM 34.3690 -109.4420 269° West 451 519 40,100  Level FlightAware
05:58AM 34.3680 -109.5430 269° West 452 520 40,100  Level FlightAware
05:58AM 34.3660 -109.6510 269° West 453 521 40,100  Level FlightAware
05:59AM 34.3640 -109.7530 269° West 453 521 40,100  Level FlightAware
06:00AM 34.3620 -109.8660 269° West 453 521 40,100  Level FlightAware
06:00AM 34.3610 -109.9650 269° West 453 521 40,100  Level FlightAware
06:01AM 34.3580 -110.0790 268° West 455 524 40,100  Level FlightAware
06:02AM 34.3560 -110.1810 269° West 457 526 40,100  Level FlightAware
06:02AM 34.3540 -110.2890 269° West 459 528 40,100  Level FlightAware
06:03AM 34.3520 -110.3940 269° West 461 531 40,100  Level FlightAware
06:04AM 34.3490 -110.5070 268° West 463 533 40,100  Level FlightAware
06:05AM 34.3470 -110.6110 269° West 464 534 40,100  Level FlightAware
06:05AM 34.3440 -110.7220 268° West 464 534 40,100  Level FlightAware
06:06AM 34.3410 -110.8310 268° West 464 534 40,100  Level FlightAware
06:07AM 34.3380 -110.9480 268° West 465 535 40,100  Level FlightAware
06:07AM 34.3350 -111.0540 268° West 465 535 40,100  Level FlightAware
06:08AM 34.3330 -111.1450 269° West 465 535 40,100  Level FlightAware
06:09AM 34.3290 -111.2490 267° West 464 534 40,100  Level FlightAware
06:09AM 34.3260 -111.3610 268° West 464 534 40,100  Level FlightAware
06:10AM 34.3230 -111.4670 268° West 464 534 40,100  Level FlightAware
06:11AM 34.3170 -111.6510 268° West 463 533 40,100  Level FlightAware
06:12AM 34.3140 -111.7510 268° West 463 533 40,100  Level FlightAware
06:13AM 34.3100 -111.8700 268° West 462 532 40,100  Level FlightAware
06:13AM 34.3060 -111.9760 267° West 461 531 40,100  Level FlightAware
06:14AM 34.3020 -112.0710 267° West 462 532 40,100  Level FlightAware
06:14AM 34.3000 -112.1510 268° West 461 531 40,100  Level FlightAware
06:17AM 34.2880 -112.4580 267° West 463 533 40,100  Level FlightAware
06:17AM 34.2830 -112.5710 267° West 462 532 40,100  Level FlightAware
06:18AM 34.2770 -112.7230 267° West 461 531 40,100  Level FlightAware
06:19AM 34.2730 -112.8230 267° West 459 528 40,100  Level FlightAware
06:19AM 34.2690 -112.9130 267° West 459 528 40,100  Level FlightAware
06:20AM 34.2650 -113.0130 267° West 458 527 40,100  Level FlightAware
06:21AM 34.2600 -113.1220 267° West 457 526 40,100  Level FlightAware
06:21AM 34.2550 -113.2370 267° West 454 522 40,100  Level FlightAware
06:22AM 34.2520 -113.2980 267° West 454 522 40,100  Level FlightAware
06:23AM 34.2470 -113.4070 267° West 453 521 40,100  Level FlightAware
06:23AM 34.2410 -113.5200 266° West 452 520 40,100  Level FlightAware
06:24AM 34.2360 -113.6260 267° West 452 520 40,100  Level FlightAware
06:25AM 34.2310 -113.7240 266° West 451 519 40,100  Level FlightAware
06:25AM 34.2250 -113.8070 265° West 450 518 40,100  Level FlightAware
06:26AM 34.2110 -113.9410 263° West 450 518 40,100  Level FlightAware
06:27AM 34.2000 -114.0440 263° West 451 519 40,100  Level FlightAware
06:28AM 34.1900 -114.1460 263° West 451 519 40,100  Level FlightAware
06:28AM 34.1790 -114.2560 263° West 452 520 40,100  Level FlightAware
06:29AM 34.1680 -114.3660 263° West 452 520 40,100  Level FlightAware
06:30AM 34.1590 -114.4640 264° West 454 522 40,100  Level FlightAware
06:30AM 34.1470 -114.5750 263° West 454 522 40,100  Level FlightAware
06:31AM 34.1360 -114.6800 263° West 455 524 40,100  Level FlightAware
06:32AM 34.1220 -114.8070 262° West 455 524 40,100  Level FlightAware
06:33AM 34.1100 -114.9300 263° West 454 522 40,100  Level FlightAware
06:33AM 34.0990 -115.0280 262° West 454 522 40,100  Level FlightAware
06:34AM 34.0910 -115.1050 263° West 40,100  Level FlightAware
06:35AM 34.0780 -115.2260 263° West 453 521 40,100  Level FlightAware
06:35AM 34.0670 -115.3260 262° West 454 522 40,100  Level FlightAware
06:36AM 34.0560 -115.4220 262° West 454 522 40,100 -300 Level FlightAware
06:37AM 34.0460 -115.5200 263° West 454 522 39,700 -1,440 Descending FlightAware
06:37AM 34.0340 -115.6270 262° West 454 522 38,100 -2,460 Descending FlightAware
06:38AM 34.0210 -115.7400 262° West 456 525 36,200 -2,760 Descending FlightAware
06:39AM 34.0100 -115.8410 263° West 459 528 34,200 -3,240 Descending FlightAware
06:40AM 33.9960 -115.9530 261° West 463 533 31,700 -3,600 Descending FlightAware
06:40AM 33.9840 -116.0580 262° West 471 542 29,100 -4,020 Descending FlightAware
06:41AM 33.9720 -116.1610 262° West 482 555 26,400 -3,780 Descending FlightAware
06:42AM 33.9590 -116.2690 262° West 473 544 24,100 -2,340 Descending FlightAware
06:42AM 33.9460 -116.3730 261° West 467 537 23,100 -3,300 Descending FlightAware
06:43AM 33.9310 -116.5090 262° West 442 509 19,100 -4,200 Descending FlightAware
06:44AM 33.9190 -116.6080 262° West 427 491 17,000 -2,940 Descending FlightAware
06:44AM 33.9080 -116.7020 262° West 408 470 15,100 -1,980 Descending FlightAware
06:45AM 33.8960 -116.7940 261° West 371 427 14,200 -1,080 Descending FlightAware
06:46AM 33.8920 -116.8640 266° West 345 397 13,700 -1,020 Descending FlightAware
06:47AM 33.9150 -116.9510 288° West 309 356 12,800 -1,620 Descending FlightAware
06:47AM 33.9370 -117.0130 293° West 297 342 11,300 -2,340 Descending FlightAware
06:48AM 33.9580 -117.0740 293° West 296 341 9,700 -2,280 Descending FlightAware
06:48AM 33.9730 -117.1180 292° West 291 335 8,700 -1,920 Descending FlightAware
06:49AM 33.9880 -117.1640 291° West 283 326 7,800 -1,860 Descending FlightAware
06:49AM 34.0020 -117.2050 292° West 277 319 6,900 -2,040 Descending FlightAware
06:50AM 34.0160 -117.2450 293° West 265 305 5,900 -1,620 Descending FlightAware
06:51AM 34.0330 -117.2970 292° West 231 266 5,100 -1,200 Descending FlightAware
06:51AM 34.0380 -117.3110 293° West 215 247 4,900 -840 Descending FlightAware
06:51AM 34.0490 -117.3440 292° West 192 221 4,500 -720 Descending FlightAware
06:52AM 34.0540 -117.3720 282° West 195 224 4,200 -900 Descending FlightAware
06:52AM 34.0550 -117.3950 273° West 197 227 3,800 -1,080 Descending FlightAware
06:53AM 34.0550 -117.4330 270° West 183 211 3,200 -660 Descending FlightAware
06:53AM 34.0550 -117.4660 270° West 178 205 3,000 -600 Descending FlightAware
06:54AM 34.0558 -117.4883 270° West 190 219 2,500 -900 Descending Los Angeles Center
06:55AM 34.0567 -117.5386 271° West 170 196 1,700 -780 Descending Los Angeles Center
06:56AM 34.0564 -117.5881 270° West 140 161 1,000 -720 Descending Los Angeles Center
06:58AM 34.0500 -117.6000 275° West  Level FlightAware Approximate